createdAt,value
2016-07-05T00:00:05.656Z,0
2016-07-05T00:01:05.079Z,0
2016-07-05T00:02:05.840Z,0
2016-07-05T00:03:05.083Z,0
2016-07-05T00:04:05.066Z,0
2016-07-05T00:05:05.071Z,0
2016-07-05T00:06:07.193Z,0
2016-07-05T00:07:07.051Z,0
2016-07-05T00:08:06.482Z,0
2016-07-05T00:09:06.699Z,0
2016-07-05T00:10:06.532Z,0
2016-07-05T00:11:05.865Z,0
2016-07-05T00:12:05.060Z,0
2016-07-05T00:13:05.045Z,0
2016-07-05T00:14:05.032Z,0
2016-07-05T00:15:05.043Z,0
2016-07-05T00:16:05.049Z,0
2016-07-05T00:17:05.040Z,0
2016-07-05T00:18:05.047Z,0
2016-07-05T00:19:05.036Z,0
2016-07-05T00:20:05.041Z,0
2016-07-05T00:21:05.032Z,0
2016-07-05T00:22:05.010Z,0
2016-07-05T00:23:05.025Z,0
2016-07-05T00:24:05.028Z,0
2016-07-05T00:25:05.021Z,0
2016-07-05T00:26:05.020Z,0
2016-07-05T00:27:04.992Z,0
2016-07-05T00:28:05.001Z,0
2016-07-05T00:29:04.981Z,0
2016-07-05T00:30:04.992Z,0
2016-07-05T00:31:05.001Z,0
2016-07-05T00:32:05.594Z,0
2016-07-05T00:33:05.010Z,0
2016-07-05T00:34:04.999Z,0
2016-07-05T00:35:05.007Z,0
2016-07-05T00:36:05.002Z,0
2016-07-05T00:37:04.997Z,0
2016-07-05T00:38:04.997Z,0
2016-07-05T00:39:04.996Z,0
2016-07-05T00:40:04.986Z,0
2016-07-05T00:41:04.980Z,0
2016-07-05T00:42:04.995Z,0
2016-07-05T00:43:04.958Z,0
2016-07-05T00:44:04.969Z,0
2016-07-05T00:45:04.975Z,0
2016-07-05T00:46:04.971Z,0
2016-07-05T00:47:07.172Z,0
2016-07-05T00:48:05.661Z,0
2016-07-05T00:49:05.782Z,0
2016-07-05T00:50:20.440Z,0
2016-07-05T00:51:06.181Z,0
2016-07-05T00:52:05.912Z,0
2016-07-05T00:53:04.949Z,0
2016-07-05T00:54:04.931Z,0
2016-07-05T00:55:04.913Z,0
2016-07-05T00:56:04.948Z,0
2016-07-05T00:57:06.141Z,0
2016-07-05T00:58:05.790Z,0
2016-07-05T00:59:05.692Z,0
2016-07-05T01:00:05.439Z,0
2016-07-05T01:02:04.962Z,0
2016-07-05T01:03:04.918Z,0
2016-07-05T01:04:04.901Z,0
2016-07-05T01:05:04.896Z,0
2016-07-05T01:06:05.494Z,0
2016-07-05T01:07:04.887Z,0
2016-07-05T01:08:04.892Z,0
2016-07-05T01:09:04.872Z,0
2016-07-05T01:10:04.886Z,0
2016-07-05T01:11:04.885Z,0
2016-07-05T01:12:04.876Z,0
2016-07-05T01:13:05.047Z,0
2016-07-05T01:14:04.881Z,0
2016-07-05T01:15:06.678Z,0
2016-07-05T01:16:06.940Z,0
2016-07-05T01:17:06.790Z,0
2016-07-05T01:18:05.239Z,0
2016-07-05T01:19:05.668Z,0
2016-07-05T01:20:05.028Z,0
2016-07-05T01:21:04.859Z,0
2016-07-05T01:22:04.876Z,0
2016-07-05T01:23:04.858Z,0
2016-07-05T01:24:06.785Z,0
2016-07-05T01:26:06.725Z,0
2016-07-05T01:27:05.796Z,0
2016-07-05T01:28:04.835Z,0
2016-07-05T01:29:04.835Z,0
2016-07-05T01:30:04.841Z,0
2016-07-05T01:31:04.830Z,0
2016-07-05T01:32:04.808Z,0
2016-07-05T01:33:04.793Z,0
2016-07-05T01:34:04.796Z,0
2016-07-05T01:35:04.796Z,0
2016-07-05T01:36:04.777Z,0
2016-07-05T01:37:04.808Z,0
2016-07-05T01:38:04.807Z,0
2016-07-05T01:39:04.794Z,0
2016-07-05T01:40:04.801Z,0
2016-07-05T01:41:04.767Z,0
2016-07-05T01:42:04.802Z,0
2016-07-05T01:43:04.786Z,0
2016-07-05T01:44:04.779Z,0
2016-07-05T01:45:04.777Z,0
2016-07-05T01:46:04.777Z,0
2016-07-05T01:47:04.781Z,0
2016-07-05T01:48:04.762Z,0
2016-07-05T01:49:04.760Z,0
2016-07-05T01:50:04.772Z,0
2016-07-05T01:51:04.761Z,0
2016-07-05T01:52:04.748Z,0
2016-07-05T01:53:04.746Z,0
2016-07-05T01:54:04.749Z,0
2016-07-05T01:55:04.747Z,0
2016-07-05T01:56:04.736Z,0
2016-07-05T01:57:04.743Z,0
2016-07-05T01:58:04.726Z,0
2016-07-05T01:59:04.719Z,0
2016-07-05T02:00:05.069Z,0
2016-07-05T02:01:05.143Z,0
2016-07-05T02:02:05.138Z,0
2016-07-05T02:03:04.900Z,0
2016-07-05T02:04:05.075Z,0
2016-07-05T02:05:05.073Z,0
2016-07-05T02:06:06.415Z,0
2016-07-05T02:07:06.324Z,0
2016-07-05T02:08:20.014Z,0
2016-07-05T02:09:07.416Z,0
2016-07-05T02:10:04.786Z,0
2016-07-05T02:11:04.684Z,0
2016-07-05T02:12:04.674Z,0
2016-07-05T02:13:04.671Z,0
2016-07-05T02:14:04.673Z,0
2016-07-05T02:15:20.445Z,0
2016-07-05T02:16:05.107Z,0
2016-07-05T02:17:05.946Z,0
2016-07-05T02:18:05.310Z,0
2016-07-05T02:19:04.658Z,0
2016-07-05T02:20:04.856Z,0
2016-07-05T02:21:04.650Z,0
2016-07-05T02:22:04.636Z,0
2016-07-05T02:23:04.647Z,0
2016-07-05T02:24:04.648Z,0
2016-07-05T02:25:04.637Z,0
2016-07-05T02:26:04.626Z,0
2016-07-05T02:27:04.624Z,0
2016-07-05T02:28:04.592Z,0
2016-07-05T02:29:04.613Z,0
2016-07-05T02:30:04.601Z,0
2016-07-05T02:31:04.599Z,0
2016-07-05T02:32:04.592Z,0
2016-07-05T02:33:22.220Z,0
2016-07-05T02:35:07.139Z,0
2016-07-05T02:36:06.836Z,0
2016-07-05T02:37:06.210Z,0
2016-07-05T02:38:04.560Z,0
2016-07-05T02:39:04.565Z,0
2016-07-05T02:40:04.563Z,0
2016-07-05T02:41:04.647Z,0
2016-07-05T02:44:08.158Z,5
2016-07-05T02:45:05.095Z,5
2016-07-05T02:46:05.121Z,5
2016-07-05T02:47:04.544Z,5
2016-07-05T02:48:04.557Z,5
2016-07-05T02:49:04.532Z,5
2016-07-05T02:50:04.533Z,5
2016-07-05T02:51:04.540Z,5
2016-07-05T02:52:04.551Z,10
2016-07-05T02:53:04.549Z,10
2016-07-05T02:54:04.534Z,10
2016-07-05T02:55:04.536Z,10
2016-07-05T02:56:04.531Z,15
2016-07-05T02:57:04.496Z,15
2016-07-05T02:58:04.509Z,15
2016-07-05T02:59:04.495Z,15
2016-07-05T03:00:04.499Z,15
2016-07-05T03:01:04.501Z,15
2016-07-05T03:02:04.497Z,15
2016-07-05T03:03:04.513Z,20
2016-07-05T03:04:04.494Z,20
2016-07-05T03:05:04.507Z,20
2016-07-05T03:06:04.491Z,20
2016-07-05T03:07:04.482Z,25
2016-07-05T03:08:04.483Z,25
2016-07-05T03:09:04.491Z,25
2016-07-05T03:10:04.490Z,25
2016-07-05T03:11:04.480Z,25
2016-07-05T03:12:04.498Z,30
2016-07-05T03:13:04.539Z,30
2016-07-05T03:14:04.504Z,35
2016-07-05T03:15:04.476Z,35
2016-07-05T03:16:04.476Z,35
2016-07-05T03:17:04.473Z,35
2016-07-05T03:18:04.471Z,40
2016-07-05T03:19:04.444Z,40
2016-07-05T03:20:04.469Z,45
2016-07-05T03:21:04.452Z,45
2016-07-05T03:22:04.453Z,50
2016-07-05T03:23:04.459Z,50
2016-07-05T03:24:05.000Z,50
2016-07-05T03:25:05.246Z,50
2016-07-05T03:26:05.702Z,50
2016-07-05T03:27:19.845Z,50
2016-07-05T03:28:05.536Z,50
2016-07-05T03:29:04.430Z,55
2016-07-05T03:30:04.426Z,55
2016-07-05T03:31:04.442Z,55
2016-07-05T03:32:04.437Z,55
2016-07-05T03:33:34.219Z,65
2016-07-05T03:34:05.638Z,65
2016-07-05T03:35:05.219Z,70
2016-07-05T03:36:05.386Z,75
2016-07-05T03:37:05.067Z,80
2016-07-05T03:38:04.411Z,80
2016-07-05T03:39:04.453Z,80
2016-07-05T03:40:04.413Z,90
2016-07-05T03:41:04.384Z,95
2016-07-05T03:42:04.990Z,100
2016-07-05T03:43:04.393Z,100
2016-07-05T03:44:04.393Z,105
2016-07-05T03:45:04.380Z,110
2016-07-05T03:46:04.376Z,115
2016-07-05T03:47:04.377Z,125
2016-07-05T03:48:04.391Z,130
2016-07-05T03:49:04.369Z,130
2016-07-05T03:50:04.386Z,135
2016-07-05T03:53:08.250Z,150
2016-07-05T03:54:05.606Z,160
2016-07-05T03:55:06.049Z,160
2016-07-05T03:56:05.288Z,165
2016-07-05T03:57:04.374Z,175
2016-07-05T03:58:04.377Z,180
2016-07-05T03:59:04.352Z,165
2016-07-05T04:00:04.365Z,155
2016-07-05T04:01:07.313Z,150
2016-07-05T04:02:07.269Z,150
2016-07-05T04:03:06.799Z,160
2016-07-05T04:04:04.684Z,155
2016-07-05T04:05:04.560Z,165
2016-07-05T04:06:04.372Z,170
2016-07-05T04:07:04.564Z,170
2016-07-05T04:08:04.352Z,170
2016-07-05T04:09:04.371Z,175
2016-07-05T04:10:04.949Z,175
2016-07-05T04:11:04.348Z,195
2016-07-05T04:12:04.340Z,230
2016-07-05T04:13:05.063Z,240
2016-07-05T04:14:04.332Z,255
2016-07-05T04:15:04.345Z,250
2016-07-05T04:16:04.351Z,185
2016-07-05T04:17:04.343Z,200
2016-07-05T04:18:04.350Z,195
2016-07-05T04:19:04.334Z,200
2016-07-05T04:20:04.347Z,205
2016-07-05T04:21:04.350Z,220
2016-07-05T04:22:04.325Z,250
2016-07-05T04:23:04.314Z,215
2016-07-05T04:24:04.316Z,230
2016-07-05T04:25:04.341Z,245
2016-07-05T04:26:04.347Z,250
2016-07-05T04:27:04.334Z,255
2016-07-05T04:28:04.331Z,260
2016-07-05T04:29:04.344Z,315
2016-07-05T04:30:04.331Z,420
2016-07-05T04:31:04.326Z,305
2016-07-05T04:32:04.361Z,265
2016-07-05T04:33:04.312Z,360
2016-07-05T04:34:04.343Z,480
2016-07-05T04:35:04.315Z,510
2016-07-05T04:36:04.328Z,345
2016-07-05T04:37:04.321Z,355
2016-07-05T04:38:04.345Z,200
2016-07-05T04:39:04.353Z,235
2016-07-05T04:40:04.327Z,240
2016-07-05T04:41:04.317Z,255
2016-07-05T04:42:19.220Z,260
2016-07-05T04:43:04.832Z,445
2016-07-05T04:44:05.002Z,435
2016-07-05T04:45:04.927Z,455
2016-07-05T04:46:19.238Z,450
2016-07-05T04:47:04.341Z,550
2016-07-05T04:48:04.352Z,590
2016-07-05T04:49:04.428Z,625
2016-07-05T04:50:04.342Z,620
2016-07-05T04:51:04.936Z,580
2016-07-05T04:52:04.996Z,700
2016-07-05T04:53:05.819Z,745
2016-07-05T04:55:05.518Z,805
2016-07-05T04:56:19.279Z,880
2016-07-05T04:57:05.137Z,905
2016-07-05T04:58:04.392Z,850
2016-07-05T04:59:04.401Z,530
2016-07-05T05:00:04.409Z,415
2016-07-05T05:01:04.406Z,430
2016-07-05T05:02:04.420Z,380
2016-07-05T05:03:04.409Z,410
2016-07-05T05:04:04.423Z,740
2016-07-05T05:05:04.436Z,835
2016-07-05T05:06:04.448Z,670
2016-07-05T05:07:04.438Z,610
2016-07-05T05:08:04.436Z,395
2016-07-05T05:09:04.459Z,515
2016-07-05T05:10:06.426Z,610
2016-07-05T05:11:07.412Z,480
2016-07-05T05:12:07.550Z,415
2016-07-05T05:13:06.119Z,695
2016-07-05T05:14:06.501Z,560
2016-07-05T05:15:04.493Z,915
2016-07-05T05:16:04.973Z,955
2016-07-05T05:17:04.508Z,970
2016-07-05T05:18:04.532Z,1015
2016-07-05T05:19:07.779Z,600
2016-07-05T05:21:05.886Z,685
2016-07-05T05:22:05.144Z,450
2016-07-05T05:23:06.188Z,465
2016-07-05T05:24:04.570Z,525
2016-07-05T05:25:04.593Z,615
2016-07-05T05:26:05.318Z,560
2016-07-05T05:27:05.297Z,470
2016-07-05T05:28:04.620Z,530
2016-07-05T05:29:04.622Z,400
2016-07-05T05:30:04.652Z,410
2016-07-05T05:31:04.640Z,415
2016-07-05T05:32:04.645Z,395
2016-07-05T05:33:04.633Z,445
2016-07-05T05:34:04.649Z,380
2016-07-05T05:35:04.651Z,335
2016-07-05T05:36:04.670Z,315
2016-07-05T05:37:04.685Z,320
2016-07-05T05:38:04.683Z,350
2016-07-05T05:39:04.670Z,385
2016-07-05T05:40:04.699Z,460
2016-07-05T05:41:04.716Z,440
2016-07-05T05:42:04.727Z,415
2016-07-05T05:43:04.734Z,390
2016-07-05T05:44:04.718Z,400
2016-07-05T05:45:04.733Z,440
2016-07-05T05:46:04.752Z,420
2016-07-05T05:47:04.739Z,440
2016-07-05T05:48:04.740Z,410
2016-07-05T05:49:04.770Z,375
2016-07-05T05:50:04.799Z,365
2016-07-05T05:51:04.774Z,390
2016-07-05T05:52:04.788Z,365
2016-07-05T05:53:04.785Z,435
2016-07-05T05:54:04.793Z,515
2016-07-05T05:55:04.805Z,610
2016-07-05T05:56:04.804Z,1205
2016-07-05T05:57:04.818Z,755
2016-07-05T05:58:04.815Z,1425
2016-07-05T05:59:04.818Z,665
2016-07-05T06:00:04.827Z,1650
2016-07-05T06:01:06.776Z,630
2016-07-05T06:02:04.981Z,625
2016-07-05T06:03:04.997Z,605
2016-07-05T06:04:05.413Z,690
2016-07-05T06:05:05.858Z,740
2016-07-05T06:06:05.409Z,660
2016-07-05T06:07:04.866Z,575
2016-07-05T06:08:04.886Z,590
2016-07-05T06:09:04.888Z,520
2016-07-05T06:10:06.503Z,545
2016-07-05T06:11:06.304Z,645
2016-07-05T06:12:05.373Z,585
2016-07-05T06:13:05.562Z,560
2016-07-05T06:14:19.861Z,595
2016-07-05T06:15:04.916Z,585
2016-07-05T06:16:04.898Z,575
2016-07-05T06:17:05.693Z,885
2016-07-05T06:18:04.938Z,475
2016-07-05T06:19:04.961Z,430
2016-07-05T06:20:04.955Z,400
2016-07-05T06:21:04.959Z,400
2016-07-05T06:22:04.942Z,430
2016-07-05T06:23:04.953Z,450
2016-07-05T06:24:04.979Z,445
2016-07-05T06:25:04.963Z,455
2016-07-05T06:26:04.978Z,450
2016-07-05T06:27:04.979Z,445
2016-07-05T06:28:07.604Z,460
2016-07-05T06:30:07.327Z,465
2016-07-05T06:31:07.252Z,465
2016-07-05T06:32:05.986Z,455
2016-07-05T06:33:05.032Z,435
2016-07-05T06:34:05.024Z,420
2016-07-05T06:35:05.032Z,430
2016-07-05T06:36:05.063Z,465
2016-07-05T06:37:11.238Z,520
2016-07-05T06:39:08.080Z,555
2016-07-05T06:40:06.662Z,535
2016-07-05T06:41:06.013Z,500
2016-07-05T06:42:05.157Z,470
2016-07-05T06:43:05.900Z,480
2016-07-05T06:44:05.070Z,505
2016-07-05T06:45:05.242Z,560
2016-07-05T06:46:05.071Z,545
2016-07-05T06:47:05.074Z,510
2016-07-05T06:48:05.094Z,525
2016-07-05T06:49:05.080Z,580
2016-07-05T06:50:05.101Z,605
2016-07-05T06:51:05.110Z,630
2016-07-05T06:52:18.446Z,700
2016-07-05T06:53:05.125Z,735
2016-07-05T06:54:05.123Z,770
2016-07-05T06:55:05.107Z,765
2016-07-05T06:56:05.139Z,715
2016-07-05T06:57:05.141Z,725
2016-07-05T06:58:05.150Z,775
2016-07-05T06:59:05.148Z,845
2016-07-05T07:00:05.169Z,1020
2016-07-05T07:01:05.183Z,900
2016-07-05T07:02:05.161Z,1540
2016-07-05T07:03:05.195Z,1560
2016-07-05T07:04:05.183Z,925
2016-07-05T07:05:05.205Z,1050
2016-07-05T07:06:05.212Z,895
2016-07-05T07:07:05.219Z,965
2016-07-05T07:08:05.218Z,900
2016-07-05T07:09:05.230Z,955
2016-07-05T07:10:05.206Z,1030
2016-07-05T07:11:05.228Z,1080
2016-07-05T07:12:05.260Z,955
2016-07-05T07:13:05.243Z,1040
2016-07-05T07:14:05.240Z,1435
2016-07-05T07:15:05.248Z,1905
2016-07-05T07:16:05.244Z,1390
2016-07-05T07:17:05.298Z,1165
2016-07-05T07:18:05.295Z,1250
2016-07-05T07:20:06.768Z,2010
2016-07-05T07:21:06.445Z,2655
2016-07-05T07:23:06.029Z,2080
2016-07-05T07:24:05.329Z,2320
2016-07-05T07:25:05.332Z,2535
2016-07-05T07:26:05.349Z,2795
2016-07-05T07:27:05.364Z,2840
2016-07-05T07:28:20.982Z,2870
2016-07-05T07:29:06.351Z,2875
2016-07-05T07:30:06.362Z,2875
2016-07-05T07:31:06.276Z,2370
2016-07-05T07:32:05.695Z,2665
2016-07-05T07:33:06.365Z,2815
2016-07-05T07:34:05.476Z,2740
2016-07-05T07:35:05.480Z,2360
2016-07-05T07:36:05.517Z,2470
2016-07-05T07:37:05.534Z,2735
2016-07-05T07:38:05.545Z,2680
2016-07-05T07:39:05.577Z,2395
2016-07-05T07:40:05.587Z,2295
2016-07-05T07:41:05.606Z,2610
2016-07-05T07:42:05.622Z,3035
2016-07-05T07:43:06.253Z,1580
2016-07-05T07:44:05.657Z,1455
2016-07-05T07:45:05.679Z,2470
2016-07-05T07:46:05.680Z,2015
2016-07-05T07:47:08.021Z,1775
2016-07-05T07:48:07.519Z,2325
2016-07-05T07:49:08.764Z,2225
2016-07-05T07:50:06.600Z,2145
2016-07-05T07:51:06.386Z,3040
2016-07-05T07:52:05.813Z,2985
2016-07-05T07:53:05.825Z,3400
2016-07-05T07:54:05.847Z,3130
2016-07-05T07:55:05.863Z,2195
2016-07-05T07:56:07.794Z,3305
2016-07-05T07:57:08.483Z,2835
2016-07-05T07:58:08.419Z,1465
2016-07-05T07:59:06.847Z,1325
2016-07-05T08:00:07.100Z,1345
2016-07-05T08:01:06.400Z,1340
2016-07-05T08:02:06.013Z,1290
2016-07-05T08:03:06.035Z,1155
2016-07-05T08:04:06.052Z,1130
2016-07-05T08:05:06.077Z,1140
2016-07-05T08:06:06.096Z,1095
2016-07-05T08:07:06.112Z,1175
2016-07-05T08:08:06.125Z,1580
2016-07-05T08:09:06.150Z,1155
2016-07-05T08:10:06.168Z,1455
2016-07-05T08:11:06.196Z,1835
2016-07-05T08:12:06.204Z,1535
2016-07-05T08:13:06.210Z,2835
2016-07-05T08:14:06.217Z,2635
2016-07-05T08:15:06.242Z,2500
2016-07-05T08:16:06.266Z,2545
2016-07-05T08:17:06.282Z,2500
2016-07-05T08:18:06.303Z,2880
2016-07-05T08:19:06.324Z,2945
2016-07-05T08:20:06.314Z,2005
2016-07-05T08:21:06.369Z,1420
2016-07-05T08:22:06.366Z,2060
2016-07-05T08:23:06.395Z,1630
2016-07-05T08:24:06.434Z,2765
2016-07-05T08:25:06.438Z,3655
2016-07-05T08:26:06.459Z,3365
2016-07-05T08:27:06.471Z,2795
2016-07-05T08:28:06.501Z,2545
2016-07-05T08:29:06.511Z,2550
2016-07-05T08:30:06.546Z,2005
2016-07-05T08:31:06.560Z,1565
2016-07-05T08:32:06.588Z,1415
2016-07-05T08:33:07.207Z,2470
2016-07-05T08:34:06.624Z,2595
2016-07-05T08:35:06.646Z,2595
2016-07-05T08:36:06.663Z,2635
2016-07-05T08:37:07.987Z,2135
2016-07-05T08:38:09.176Z,2700
2016-07-05T08:39:07.801Z,1230
2016-07-05T08:40:07.329Z,1545
2016-07-05T08:41:07.571Z,2240
2016-07-05T08:42:07.146Z,1475
2016-07-05T08:43:06.804Z,1980
2016-07-05T08:44:06.846Z,1310
2016-07-05T08:45:06.844Z,1670
2016-07-05T08:46:06.874Z,1675
2016-07-05T08:47:08.479Z,1330
2016-07-05T08:48:08.286Z,1725
2016-07-05T08:49:07.665Z,1015
2016-07-05T08:50:07.779Z,1035
2016-07-05T08:51:06.951Z,845
2016-07-05T08:52:06.978Z,900
2016-07-05T08:53:07.003Z,1205
2016-07-05T08:54:07.165Z,835
2016-07-05T08:55:07.009Z,1070
2016-07-05T08:56:07.016Z,1320
2016-07-05T08:57:07.656Z,2285
2016-07-05T08:58:07.112Z,2335
2016-07-05T08:59:07.138Z,2035
2016-07-05T09:00:07.087Z,1130
2016-07-05T09:01:07.132Z,510
2016-07-05T09:02:07.122Z,495
2016-07-05T09:03:07.123Z,495
2016-07-05T09:04:07.160Z,480
2016-07-05T09:05:09.960Z,470
2016-07-05T09:06:09.404Z,470
2016-07-05T09:07:10.032Z,490
2016-07-05T09:08:09.030Z,520
2016-07-05T09:09:07.246Z,635
2016-07-05T09:10:07.403Z,700
2016-07-05T09:11:07.221Z,735
2016-07-05T09:12:07.231Z,705
2016-07-05T09:13:07.346Z,710
2016-07-05T09:14:10.462Z,745
2016-07-05T09:16:09.517Z,815
2016-07-05T09:17:09.121Z,820
2016-07-05T09:18:07.612Z,795
2016-07-05T09:19:08.580Z,760
2016-07-05T09:20:08.389Z,740
2016-07-05T09:21:07.551Z,715
2016-07-05T09:22:07.332Z,710
2016-07-05T09:23:07.359Z,720
2016-07-05T09:24:07.368Z,755
2016-07-05T09:25:07.352Z,740
2016-07-05T09:26:07.388Z,735
2016-07-05T09:27:07.391Z,745
2016-07-05T09:28:07.409Z,800
2016-07-05T09:29:07.420Z,810
2016-07-05T09:30:07.419Z,840
2016-07-05T09:31:07.437Z,810
2016-07-05T09:32:07.439Z,780
2016-07-05T09:33:08.048Z,745
2016-07-05T09:34:07.486Z,735
2016-07-05T09:35:07.482Z,745
2016-07-05T09:36:07.482Z,725
2016-07-05T09:37:07.492Z,735
2016-07-05T09:38:07.512Z,715
2016-07-05T09:39:07.514Z,690
2016-07-05T09:40:07.514Z,685
2016-07-05T09:41:07.534Z,615
2016-07-05T09:42:07.540Z,550
2016-07-05T09:43:07.546Z,495
2016-07-05T09:44:07.562Z,480
2016-07-05T09:45:08.137Z,430
2016-07-05T09:46:07.580Z,395
2016-07-05T09:47:07.585Z,380
2016-07-05T09:48:07.580Z,390
2016-07-05T09:49:07.599Z,440
2016-07-05T09:50:07.593Z,485
2016-07-05T09:51:07.607Z,495
2016-07-05T09:52:07.629Z,520
2016-07-05T09:53:07.653Z,475
2016-07-05T09:54:07.648Z,470
2016-07-05T09:55:07.661Z,475
2016-07-05T09:56:08.036Z,465
2016-07-05T09:57:08.489Z,465
2016-07-05T09:58:23.683Z,495
2016-07-05T09:59:22.916Z,570
2016-07-05T10:00:07.684Z,605
2016-07-05T10:01:07.722Z,630
2016-07-05T10:02:08.391Z,705
2016-07-05T10:03:07.718Z,705
2016-07-05T10:04:07.740Z,725
2016-07-05T10:05:08.159Z,775
2016-07-05T10:06:10.008Z,750
2016-07-05T10:07:08.444Z,775
2016-07-05T10:08:23.567Z,800
2016-07-05T10:09:08.236Z,800
2016-07-05T10:10:08.622Z,765
2016-07-05T10:11:08.173Z,730
2016-07-05T10:12:07.799Z,730
2016-07-05T10:13:08.431Z,745
2016-07-05T10:14:07.839Z,800
2016-07-05T10:15:07.828Z,840
2016-07-05T10:16:07.847Z,780
2016-07-05T10:17:07.855Z,770
2016-07-05T10:18:07.862Z,790
2016-07-05T10:20:07.876Z,745
2016-07-05T10:21:07.882Z,715
2016-07-05T10:22:07.902Z,690
2016-07-05T10:23:09.796Z,715
2016-07-05T10:24:10.230Z,725
2016-07-05T10:25:12.195Z,740
2016-07-05T10:26:08.999Z,760
2016-07-05T10:27:08.800Z,775
2016-07-05T10:28:07.961Z,735
2016-07-05T10:29:07.960Z,675
2016-07-05T10:30:07.969Z,665
2016-07-05T10:31:07.979Z,665
2016-07-05T10:32:10.023Z,625
2016-07-05T10:34:11.373Z,645
2016-07-05T10:35:08.790Z,715
2016-07-05T10:36:09.197Z,765
2016-07-05T10:37:08.390Z,775
2016-07-05T10:38:09.203Z,755
2016-07-05T10:39:08.058Z,760
2016-07-05T10:41:14.054Z,700
2016-07-05T10:47:09.639Z,640
2016-07-05T10:48:08.140Z,660
2016-07-05T10:49:08.156Z,665
2016-07-05T10:50:08.170Z,685
2016-07-05T10:51:08.171Z,715
2016-07-05T10:52:08.181Z,760
2016-07-05T10:53:08.194Z,800
2016-07-05T10:54:08.197Z,790
2016-07-05T10:55:08.209Z,800
2016-07-05T10:57:08.228Z,805
2016-07-05T10:58:20.982Z,840
2016-07-05T10:59:08.252Z,855
2016-07-05T11:00:08.259Z,895
2016-07-05T11:01:08.257Z,885
2016-07-05T11:02:08.264Z,870
2016-07-05T11:03:08.270Z,855
2016-07-05T11:04:08.296Z,830
2016-07-05T11:05:08.333Z,810
2016-07-05T11:06:08.317Z,835
2016-07-05T11:07:08.326Z,850
2016-07-05T11:08:08.337Z,865
2016-07-05T11:09:08.352Z,905
2016-07-05T11:10:08.366Z,900
2016-07-05T11:11:08.364Z,880
2016-07-05T11:12:08.378Z,835
2016-07-05T11:13:08.488Z,805
2016-07-05T11:14:24.244Z,770
2016-07-05T11:15:23.389Z,775
2016-07-05T11:16:08.582Z,795
2016-07-05T11:17:23.374Z,810
2016-07-05T11:18:09.035Z,790
2016-07-05T11:19:10.049Z,725
2016-07-05T11:20:08.452Z,695
2016-07-05T11:21:08.459Z,725
2016-07-05T11:22:08.468Z,755
2016-07-05T11:23:10.879Z,755
2016-07-05T11:24:09.304Z,745
2016-07-05T11:25:10.247Z,710
2016-07-05T11:26:08.892Z,655
2016-07-05T11:27:09.017Z,605
2016-07-05T11:28:08.973Z,555
2016-07-05T11:29:08.512Z,530
2016-07-05T11:30:08.558Z,495
2016-07-05T11:31:09.856Z,470
2016-07-05T11:32:08.576Z,455
2016-07-05T11:33:08.585Z,475
2016-07-05T11:34:08.582Z,570
2016-07-05T11:35:08.610Z,685
2016-07-05T11:36:08.610Z,785
2016-07-05T11:37:08.630Z,815
2016-07-05T11:38:08.605Z,815
2016-07-05T11:39:08.637Z,830
2016-07-05T11:40:08.647Z,820
2016-07-05T11:41:08.661Z,795
2016-07-05T11:42:11.189Z,770
2016-07-05T11:43:10.520Z,745
2016-07-05T11:44:09.747Z,710
2016-07-05T11:45:09.606Z,710
2016-07-05T11:46:09.263Z,745
2016-07-05T11:47:08.738Z,790
2016-07-05T11:48:08.798Z,815
2016-07-05T11:49:08.754Z,810
2016-07-05T11:50:08.762Z,790
2016-07-05T11:51:11.156Z,800
2016-07-05T11:52:13.335Z,835
2016-07-05T11:53:09.564Z,865
2016-07-05T11:54:10.606Z,875
2016-07-05T11:55:10.180Z,860
2016-07-05T11:56:09.820Z,850
2016-07-05T11:57:08.828Z,825
2016-07-05T11:58:08.823Z,805
2016-07-05T11:59:08.844Z,790
2016-07-05T12:00:08.851Z,755
2016-07-05T12:01:08.866Z,720
2016-07-05T12:02:08.837Z,685
2016-07-05T12:03:08.866Z,680
2016-07-05T12:04:08.889Z,670
2016-07-05T12:05:09.497Z,660
2016-07-05T12:06:08.906Z,665
2016-07-05T12:07:08.915Z,670
2016-07-05T12:08:08.935Z,665
2016-07-05T12:09:08.936Z,650
2016-07-05T12:10:08.940Z,650
2016-07-05T12:11:08.949Z,650
2016-07-05T12:12:08.963Z,625
2016-07-05T12:13:08.973Z,600
2016-07-05T12:14:08.984Z,585
2016-07-05T12:15:08.996Z,580
2016-07-05T12:16:08.997Z,575
2016-07-05T12:17:08.977Z,560
2016-07-05T12:18:09.019Z,545
2016-07-05T12:19:09.032Z,530
2016-07-05T12:20:09.040Z,525
2016-07-05T12:21:09.037Z,545
2016-07-05T12:22:09.055Z,565
2016-07-05T12:23:09.059Z,595
2016-07-05T12:24:09.068Z,590
2016-07-05T12:25:09.079Z,560
2016-07-05T12:26:09.097Z,545
2016-07-05T12:27:09.105Z,540
2016-07-05T12:28:09.108Z,540
2016-07-05T12:29:09.104Z,540
2016-07-05T12:30:09.120Z,535
2016-07-05T12:31:09.106Z,525
2016-07-05T12:32:24.334Z,505
2016-07-05T12:33:11.038Z,490
2016-07-05T12:34:09.689Z,485
2016-07-05T12:35:10.060Z,495
2016-07-05T12:36:09.503Z,510
2016-07-05T12:37:10.065Z,495
2016-07-05T12:38:09.781Z,485
2016-07-05T12:39:09.169Z,430
2016-07-05T12:40:09.197Z,380
2016-07-05T12:41:09.650Z,365
2016-07-05T12:42:10.424Z,380
2016-07-05T12:43:10.334Z,405
2016-07-05T12:44:10.454Z,470
2016-07-05T12:45:09.806Z,555
2016-07-05T12:46:09.275Z,620
2016-07-05T12:47:09.274Z,675
2016-07-05T12:48:09.276Z,705
2016-07-05T12:49:09.304Z,720
2016-07-05T12:50:09.299Z,745
2016-07-05T12:51:09.321Z,775
2016-07-05T12:52:09.321Z,815
2016-07-05T12:53:09.328Z,830
2016-07-05T12:54:09.342Z,820
2016-07-05T12:55:09.340Z,785
2016-07-05T12:56:09.346Z,750
2016-07-05T12:57:09.370Z,765
2016-07-05T12:58:09.964Z,775
2016-07-05T12:59:09.368Z,790
2016-07-05T13:00:11.345Z,805
2016-07-05T13:01:11.911Z,810
2016-07-05T13:02:12.131Z,795
2016-07-05T13:03:10.834Z,805
2016-07-05T13:04:11.282Z,835
2016-07-05T13:05:09.414Z,870
2016-07-05T13:06:09.879Z,860
2016-07-05T13:07:09.418Z,835
2016-07-05T13:08:09.444Z,820
2016-07-05T13:09:10.948Z,810
2016-07-05T13:11:11.655Z,800
2016-07-05T13:12:10.981Z,775
2016-07-05T13:13:09.617Z,725
2016-07-05T13:14:09.857Z,645
2016-07-05T13:15:09.513Z,585
2016-07-05T13:16:09.519Z,575
2016-07-05T13:17:09.547Z,550
2016-07-05T13:18:09.528Z,525
2016-07-05T13:19:09.546Z,460
2016-07-05T13:20:09.552Z,445
2016-07-05T13:21:09.571Z,515
2016-07-05T13:22:09.562Z,565
2016-07-05T13:23:09.585Z,585
2016-07-05T13:24:09.580Z,590
2016-07-05T13:25:09.610Z,530
2016-07-05T13:26:09.625Z,475
2016-07-05T13:27:09.618Z,405
2016-07-05T13:28:09.638Z,345
2016-07-05T13:29:09.626Z,310
2016-07-05T13:30:09.627Z,305
2016-07-05T13:31:09.646Z,350
2016-07-05T13:32:09.667Z,420
2016-07-05T13:33:09.674Z,540
2016-07-05T13:34:09.694Z,610
2016-07-05T13:35:09.692Z,530
2016-07-05T13:36:09.699Z,495
2016-07-05T13:37:09.722Z,460
2016-07-05T13:38:09.741Z,445
2016-07-05T13:39:09.720Z,425
2016-07-05T13:40:09.746Z,385
2016-07-05T13:41:09.760Z,355
2016-07-05T13:42:09.759Z,340
2016-07-05T13:43:09.760Z,340
2016-07-05T13:44:10.378Z,350
2016-07-05T13:45:09.774Z,370
2016-07-05T13:46:09.794Z,365
2016-07-05T13:47:09.813Z,395
2016-07-05T13:48:09.809Z,435
2016-07-05T13:49:09.813Z,470
2016-07-05T13:50:09.825Z,500
2016-07-05T13:51:25.344Z,495
2016-07-05T13:52:24.901Z,495
2016-07-05T13:54:10.011Z,495
2016-07-05T13:55:09.878Z,420
2016-07-05T13:56:09.885Z,370
2016-07-05T13:57:09.891Z,360
2016-07-05T13:58:09.887Z,355
2016-07-05T13:59:09.923Z,365
2016-07-05T14:00:25.697Z,395
2016-07-05T14:01:11.134Z,435
2016-07-05T14:02:11.024Z,440
2016-07-05T14:03:10.284Z,480
2016-07-05T14:04:10.546Z,450
2016-07-05T14:05:09.959Z,455
2016-07-05T14:06:10.644Z,475
2016-07-05T14:07:09.973Z,500
2016-07-05T14:08:09.985Z,535
2016-07-05T14:09:09.983Z,520
2016-07-05T14:10:09.985Z,520
2016-07-05T14:11:10.593Z,560
2016-07-05T14:12:10.617Z,575
2016-07-05T14:13:10.683Z,545
2016-07-05T14:14:10.046Z,515
2016-07-05T14:15:10.032Z,470
2016-07-05T14:16:10.053Z,440
2016-07-05T14:17:10.059Z,455
2016-07-05T14:19:12.939Z,495
2016-07-05T14:20:14.317Z,455
2016-07-05T14:21:10.801Z,420